Terminal Aerodrome Forecast
Issued by NWS San Angelo, TX

Home | Current Version | Previous Version | Text Only | Print | Product List | Glossary On
Versions: 1 2 3 4 5 6 7 8 9 10 11 12 13 14 15 16 17
000
FTUS44 KSJT 231800 AAA
TAFSJT
TAF AMD
KSJT 231843Z 2319/2418 19010KT P6SM BKN025
      TEMPO 2319/2320 SCT025
     FM232000 19008KT P6SM FEW030
     FM232300 17005KT P6SM SKC
     FM241400 21007KT P6SM SKC=

USA.gov is the U.S. government's official web portal to all federal, state and local government web resources and services.